Terminal Aerodrome Forecast
Issued by NWS Mobile, AL

Current Version | Previous Version | Text Only | Print | Product List | Glossary On
Versions: 1 2 3 4 5 6 7 8 9 10 11 12
000
FTUS44 KMOB 261754
TAFPNS
TAF
KPNS 261754Z 2618/2718 VRB04KT P6SM VCTS SCT035CB
     FM270100 25004KT P6SM FEW050 SCT200
     FM271500 31003KT P6SM SKC=

USA.gov is the U.S. government's official web portal to all federal, state and local government web resources and services.